createdAt,value
2022-11-24T00:05:39.889Z,60.02
2022-11-24T00:12:25.380Z,60.01
2022-11-24T00:19:19.469Z,60.18
2022-11-24T00:26:14.643Z,60.18
2022-11-24T00:33:00.303Z,60.11
2022-11-24T00:39:48.926Z,60.40
2022-11-24T00:46:34.583Z,60.34
2022-11-24T00:53:20.080Z,60.46
2022-11-24T01:00:10.596Z,60.63
2022-11-24T01:06:56.026Z,60.56
2022-11-24T01:13:41.604Z,60.19
2022-11-24T01:20:29.675Z,60.30
2022-11-24T01:27:15.261Z,59.99
2022-11-24T01:34:00.926Z,59.80
2022-11-24T01:40:49.121Z,59.93
2022-11-24T01:47:40.834Z,60.04
2022-11-24T01:54:32.665Z,60.04
2022-11-24T02:01:21.405Z,60.49
2022-11-24T02:08:08.011Z,60.61
2022-11-24T02:14:54.263Z,60.47
2022-11-24T02:21:42.558Z,60.71
2022-11-24T02:28:33.284Z,60.93
2022-11-24T02:35:20.153Z,60.89
2022-11-24T02:42:08.091Z,60.14
2022-11-24T02:48:56.491Z,60.84
2022-11-24T02:55:41.966Z,60.81
2022-11-24T03:02:27.744Z,60.90
2022-11-24T03:09:15.891Z,60.91
2022-11-24T03:16:01.690Z,60.88
2022-11-24T03:22:47.064Z,60.79
2022-11-24T03:29:35.099Z,60.83
2022-11-24T03:36:20.952Z,60.43
2022-11-24T03:43:06.587Z,60.42
2022-11-24T04:03:43.359Z,60.73
2022-11-24T04:10:28.927Z,60.64
2022-11-24T04:17:14.357Z,60.75
2022-11-24T04:24:02.382Z,61.10
2022-11-24T04:30:47.999Z,60.97
2022-11-24T04:37:33.425Z,61.03
2022-11-24T04:44:21.650Z,61.31
2022-11-24T04:51:08.758Z,61.24
2022-11-24T04:57:54.285Z,61.28
2022-11-24T05:04:42.774Z,61.35
2022-11-24T05:11:28.238Z,61.29
2022-11-24T05:18:16.859Z,61.50
2022-11-24T05:25:05.177Z,61.72
2022-11-24T05:31:50.689Z,61.43
2022-11-24T05:38:37.192Z,61.37
2022-11-24T05:45:25.870Z,61.50
2022-11-24T05:52:11.267Z,61.55
2022-11-24T05:58:56.836Z,61.66
2022-11-24T06:05:50.326Z,61.84
2022-11-24T06:12:35.814Z,61.82
2022-11-24T06:19:21.212Z,61.92
2022-11-24T06:26:09.900Z,62.19
2022-11-24T06:32:58.612Z,62.24
2022-11-24T06:39:44.149Z,62.51
2022-11-24T06:46:32.105Z,62.68
2022-11-24T06:53:18.165Z,62.69
2022-11-24T07:00:03.669Z,62.83
2022-11-24T07:06:52.064Z,62.97
2022-11-24T07:13:38.331Z,62.98
2022-11-24T07:20:24.189Z,62.94
2022-11-24T07:27:12.476Z,63.04
2022-11-24T07:33:58.965Z,63.13
2022-11-24T07:40:44.409Z,63.04
2022-11-24T07:47:32.446Z,63.32
2022-11-24T07:54:17.889Z,63.22
2022-11-24T08:01:11.993Z,63.58
2022-11-24T08:08:02.157Z,63.53
2022-11-24T08:14:47.614Z,63.57
2022-11-24T08:21:33.108Z,63.70
2022-11-24T08:28:21.260Z,63.83
2022-11-24T08:35:14.067Z,63.96
2022-11-24T08:42:00.312Z,64.02
2022-11-24T08:48:51.976Z,64.10
2022-11-24T08:55:37.561Z,63.96
2022-11-24T09:02:23.256Z,64.18
2022-11-24T09:09:13.083Z,64.68
2022-11-24T09:15:58.505Z,64.45
2022-11-24T09:22:44.320Z,64.25
2022-11-24T09:29:32.965Z,64.50
2022-11-24T09:36:18.626Z,64.28
2022-11-24T09:43:10.909Z,64.30
2022-11-24T09:50:05.115Z,64.17
2022-11-24T09:56:51.391Z,63.85
2022-11-24T10:03:42.062Z,63.82
2022-11-24T10:10:43.763Z,63.33
2022-11-24T10:17:49.916Z,63.41
2022-11-24T10:25:04.229Z,62.79
2022-11-24T10:31:58.568Z,62.55
2022-11-24T10:38:51.468Z,62.18
2022-11-24T10:45:37.932Z,61.71
2022-11-24T10:52:28.684Z,61.26
2022-11-24T10:59:34.355Z,61.03
2022-11-24T11:06:27.621Z,60.54
2022-11-24T11:13:32.539Z,60.49
2022-11-24T11:20:30.211Z,59.93
2022-11-24T11:27:22.692Z,59.78
2022-11-24T11:34:35.478Z,59.77
2022-11-24T11:41:27.159Z,59.04
2022-11-24T11:48:42.326Z,59.40
2022-11-24T11:55:50.066Z,58.74
2022-11-24T12:03:18.454Z,58.51
2022-11-24T12:10:13.775Z,57.94
2022-11-24T12:17:12.606Z,57.62
2022-11-24T12:24:11.476Z,57.46
2022-11-24T12:31:08.803Z,57.35
2022-11-24T12:38:24.703Z,57.26
2022-11-24T12:45:20.191Z,57.27
2022-11-24T12:52:19.435Z,56.76
2022-11-24T12:59:24.326Z,56.60
2022-11-24T13:06:20.794Z,56.42
2022-11-24T13:13:08.346Z,56.12
2022-11-24T13:19:56.364Z,55.93
2022-11-24T13:26:50.186Z,56.32
2022-11-24T13:33:40.646Z,55.76
2022-11-24T13:41:06.273Z,55.69
2022-11-24T13:47:52.554Z,55.34
2022-11-24T13:54:38.143Z,55.58
2022-11-24T14:01:28.590Z,55.03
2022-11-24T14:08:24.887Z,54.95
2022-11-24T14:15:34.141Z,54.97
2022-11-24T14:22:26.844Z,54.55
2022-11-24T14:29:20.255Z,54.34
2022-11-24T14:36:06.275Z,54.42
2022-11-24T14:42:54.728Z,54.21
2022-11-24T14:49:44.919Z,54.22
2022-11-24T14:56:32.994Z,54.11
2022-11-24T15:03:22.212Z,53.75
2022-11-24T15:10:20.621Z,53.33
2022-11-24T15:17:06.659Z,53.47
2022-11-24T15:24:19.644Z,53.43
2022-11-24T15:31:08.728Z,53.09
2022-11-24T15:37:54.433Z,52.98
2022-11-24T15:44:42.436Z,53.08
2022-11-24T15:51:29.904Z,52.92
2022-11-24T15:58:16.358Z,52.99
2022-11-24T16:05:04.936Z,52.48
2022-11-24T16:11:50.511Z,52.73
2022-11-24T16:18:39.767Z,52.67
2022-11-24T16:25:27.982Z,52.50
2022-11-24T16:32:13.434Z,52.44
2022-11-24T16:38:59.793Z,52.18
2022-11-24T16:45:48.392Z,52.42
2022-11-24T16:52:33.857Z,52.60
2022-11-24T16:59:19.332Z,52.76
2022-11-24T17:06:09.680Z,52.12
2022-11-24T17:12:55.119Z,52.32
2022-11-24T17:19:40.522Z,52.28
2022-11-24T17:26:29.471Z,52.41
2022-11-24T17:33:15.247Z,52.67
2022-11-24T17:40:26.941Z,52.11
2022-11-24T17:47:08.774Z,52.43
2022-11-24T17:53:57.329Z,52.43
2022-11-24T18:00:42.822Z,52.19
2022-11-24T18:07:31.560Z,52.27
2022-11-24T18:14:17.573Z,52.03
2022-11-24T18:21:04.990Z,52.54
2022-11-24T18:27:54.057Z,53.19
2022-11-24T18:34:39.707Z,53.40
2022-11-24T18:41:25.156Z,53.49
2022-11-24T18:48:13.190Z,53.37
2022-11-24T18:55:03.811Z,53.41
2022-11-24T19:01:49.320Z,53.37
2022-11-24T19:08:37.913Z,53.45
2022-11-24T19:15:23.336Z,53.47
2022-11-24T19:22:09.366Z,53.46
2022-11-24T19:28:57.344Z,53.43
2022-11-24T19:35:44.373Z,53.46
2022-11-24T19:42:29.820Z,53.64
2022-11-24T19:49:18.187Z,53.64
2022-11-24T19:56:08.248Z,53.35
2022-11-24T20:02:54.386Z,53.10
2022-11-24T20:09:42.765Z,53.04
2022-11-24T20:16:30.542Z,53.42
2022-11-24T20:23:17.247Z,53.07
2022-11-24T20:30:05.620Z,53.03
2022-11-24T20:36:52.884Z,53.06
2022-11-24T20:43:38.814Z,52.99
2022-11-24T20:50:27.020Z,52.78
2022-11-24T20:57:12.435Z,52.95
2022-11-24T21:04:00.298Z,52.84
2022-11-24T21:10:56.817Z,52.99
2022-11-24T21:17:42.492Z,52.82
2022-11-24T21:24:31.044Z,52.75
2022-11-24T21:31:22.867Z,52.84
2022-11-24T21:38:08.701Z,52.63
2022-11-24T21:44:54.150Z,52.68
2022-11-24T21:51:42.152Z,52.70
2022-11-24T21:58:28.889Z,52.61
2022-11-24T22:05:14.470Z,52.58
2022-11-24T22:12:02.862Z,52.66
2022-11-24T22:18:49.613Z,52.54
2022-11-24T22:25:35.901Z,52.49
2022-11-24T22:32:24.287Z,52.46
2022-11-24T22:39:13.277Z,52.17
2022-11-24T22:45:58.774Z,52.21
2022-11-24T22:52:47.234Z,52.19
2022-11-24T22:59:32.612Z,52.19
2022-11-24T23:06:21.282Z,52.32
2022-11-24T23:13:09.338Z,52.20
2022-11-24T23:19:54.808Z,52.20
2022-11-24T23:26:43.912Z,51.97
2022-11-24T23:33:32.384Z,52.18
2022-11-24T23:40:18.908Z,52.01
2022-11-24T23:47:04.320Z,51.98
2022-11-24T23:53:53.373Z,52.00
